Airfield :
LOGIN :

Register | Disclaimer

   EN    FR    IT 

 










Legend :    VFR   Marginal VFR   IFR   Intensive IFR   Very Intensive IFR
Visi :
Ceiling :
>= 8 km
>= 3000ft
5 to 8 km
1000 to 3000 ft
1500m to 5 km
500 to 1000 ft
800 to 1500m
200 to 500 ft
< 800m
< 200 ft
Symbols :   Thunderstorms  Fog  Heavy snow  Heavy precipitations  Wind > 20 kt
SIGMETs :     Misc.  Thunderstorms  Icing  Turbulence  Mountain Waves  Volcanic Ashes






- Airport Elevation : 65 ft
- IATA code : PMO


LICJ - Palermo Punta Raisi

CURRENT METAR :
  • 242220Z AUTO 22009KT 9999 NCD 20/16 Q1023

EXPIRED METARs :
  • 242150Z AUTO 22008KT 9999 NCD 20/16 Q1023
  • 242120Z AUTO 19003KT 150V240 9999 NCD 20/15 Q1023
  • 242050Z VRB02KT CAVOK 21/16 Q1023
  • 242020Z 10004KT 070V130 CAVOK 20/14 Q1023
  • 241950Z 04006KT CAVOK 22/18 Q1023

TAF TAF LICJ
Valid from the 24 at 18:00 until the 25 at 18:00 UTC


241700Z 2418/2518 VRB05KT CAVOK
BECMG 2508/2510 04012KT



MET'MAP, your aeronautical weather chart ! - Copyright ORBIFLY December 2007 - Disclaimer

ORBIFLY MET'MAP TEAM :

Programming & Development : Alexandra Zaïnal
Concept & original design : Baudouin d'Aumeries
Assistance for programming : Marc-Olivier Méhu
Technical & hardware support : Manuel Goepfert

Contact : metmap@orbifly.com




SOURCES & CREDITS :

   NOAA